createdAt,value
2022-10-28T00:04:20.076Z,8.71
2022-10-28T00:09:22.887Z,8.65
2022-10-28T00:14:25.688Z,8.69
2022-10-28T00:19:28.692Z,8.69
2022-10-28T00:24:31.533Z,8.59
2022-10-28T00:29:34.265Z,8.49
2022-10-28T00:34:37.101Z,8.51
2022-10-28T00:39:39.890Z,8.53
2022-10-28T00:44:43.407Z,8.55
2022-10-28T00:49:46.737Z,8.56
2022-10-28T00:54:50.460Z,8.59
2022-10-28T00:59:54.120Z,8.54
2022-10-28T01:04:56.899Z,8.54
2022-10-28T01:09:59.644Z,8.59
2022-10-28T01:15:48.082Z,8.56
2022-10-28T01:21:16.206Z,8.51
2022-10-28T01:26:55.519Z,8.54
2022-10-28T01:31:59.984Z,8.55
2022-10-28T01:37:14.204Z,8.51
2022-10-28T01:43:17.583Z,8.53
2022-10-28T01:48:25.135Z,8.61
2022-10-28T01:53:31.313Z,8.66
2022-10-28T01:58:34.329Z,8.68
2022-10-28T02:03:37.293Z,8.62
2022-10-28T02:09:15.661Z,8.64
2022-10-28T02:14:45.138Z,8.65
2022-10-28T02:20:25.373Z,8.60
2022-10-28T02:25:41.683Z,8.68
2022-10-28T03:35:35.380Z,9.03
2022-10-28T03:54:58.547Z,9.06
2022-10-28T04:13:38.257Z,9.11
2022-10-28T04:18:41.024Z,9.13
2022-10-28T04:23:43.816Z,9.08
2022-10-28T04:28:46.569Z,9.05
2022-10-28T04:33:49.296Z,9.08
2022-10-28T04:38:52.255Z,9.00
2022-10-28T04:43:56.347Z,8.94
2022-10-28T04:49:01.886Z,8.98
2022-10-28T04:54:04.784Z,9.05
2022-10-28T04:59:07.611Z,9.05
2022-10-28T05:04:10.396Z,9.10
2022-10-28T05:09:13.282Z,9.07
2022-10-28T05:14:16.050Z,8.98
2022-10-28T05:19:18.839Z,8.96
2022-10-28T05:24:21.938Z,9.02
2022-10-28T05:29:26.245Z,9.04
2022-10-28T05:34:30.620Z,9.07
2022-10-28T05:39:33.400Z,9.05
2022-10-28T05:44:36.159Z,9.03
2022-10-28T05:49:38.902Z,8.98
2022-10-28T05:54:41.644Z,9.01
2022-10-28T05:59:44.393Z,9.04
2022-10-28T06:04:47.278Z,9.06
2022-10-28T06:09:50.847Z,9.06
2022-10-28T06:14:52.037Z,9.08
2022-10-28T06:19:54.785Z,9.13
2022-10-28T06:24:58.088Z,9.14
2022-10-28T06:30:00.886Z,9.19
2022-10-28T06:35:04.180Z,9.21
2022-10-28T06:40:07.798Z,9.26
2022-10-28T06:45:10.541Z,9.25
2022-10-28T06:50:14.876Z,9.30
2022-10-28T06:55:17.904Z,9.40
2022-10-28T07:00:21.659Z,9.48
2022-10-28T07:05:27.779Z,9.57
2022-10-28T07:10:30.612Z,9.72
2022-10-28T07:15:33.853Z,9.76
2022-10-28T07:20:36.819Z,9.79
2022-10-28T07:25:39.894Z,9.84
2022-10-28T07:30:43.372Z,9.93
2022-10-28T07:35:46.388Z,10.04
2022-10-28T07:40:49.367Z,10.22
2022-10-28T07:45:58.566Z,10.44
2022-10-28T07:51:03.484Z,10.63
2022-10-28T07:56:13.619Z,10.84
2022-10-28T08:01:18.841Z,11.08
2022-10-28T08:06:21.865Z,11.20
2022-10-28T08:11:24.858Z,11.20
2022-10-28T08:29:29.876Z,12.41
2022-10-28T08:34:33.001Z,12.47
2022-10-28T08:39:35.829Z,12.60
2022-10-28T08:45:27.141Z,12.84
2022-10-28T08:50:32.398Z,13.06
2022-10-28T08:55:41.250Z,13.17
2022-10-28T09:00:49.158Z,13.22
2022-10-28T09:06:08.489Z,13.17
2022-10-28T09:11:40.078Z,13.10
2022-10-28T09:16:52.811Z,13.10
2022-10-28T09:22:04.792Z,13.13
2022-10-28T09:27:37.114Z,13.23
2022-10-28T09:33:39.803Z,13.50
2022-10-28T09:38:42.544Z,13.76
2022-10-28T09:44:14.852Z,13.82
2022-10-28T09:49:36.507Z,13.93
2022-10-28T09:54:59.769Z,14.15
2022-10-28T10:00:02.897Z,14.35
2022-10-28T10:05:16.905Z,14.41
2022-10-28T10:11:27.848Z,14.46
2022-10-28T10:16:33.484Z,14.56
2022-10-28T10:21:48.652Z,14.68
2022-10-28T10:26:53.766Z,14.76
2022-10-28T10:32:15.377Z,14.86
2022-10-28T10:37:21.228Z,15.01
2022-10-28T10:42:25.562Z,15.11
2022-10-28T10:47:28.794Z,15.21
2022-10-28T10:52:31.639Z,15.30
2022-10-28T10:57:35.072Z,15.40
2022-10-28T11:02:39.897Z,15.51
2022-10-28T11:07:48.358Z,15.59
2022-10-28T11:12:55.298Z,15.67
2022-10-28T11:18:05.058Z,15.74
2022-10-28T11:23:19.893Z,15.87
2022-10-28T11:29:04.327Z,16.01
2022-10-28T11:34:38.727Z,16.16
2022-10-28T11:40:27.644Z,16.25
2022-10-28T11:45:31.830Z,16.40
2022-10-28T11:50:55.321Z,16.49
2022-10-28T11:56:42.254Z,16.67
2022-10-28T12:01:54.995Z,16.78
2022-10-28T12:07:35.661Z,16.97
2022-10-28T12:12:48.654Z,17.09
2022-10-28T12:19:18.375Z,17.17
2022-10-28T12:24:21.532Z,17.18
2022-10-28T12:29:27.963Z,17.28
2022-10-28T12:35:18.407Z,17.39
2022-10-28T12:40:46.419Z,17.49
2022-10-28T12:45:49.221Z,17.59
2022-10-28T12:51:24.140Z,17.64
2022-10-28T12:56:34.473Z,17.69
2022-10-28T13:01:37.386Z,17.73
2022-10-28T13:07:08.022Z,17.70
2022-10-28T13:12:41.645Z,17.72
2022-10-28T13:18:11.295Z,17.67
2022-10-28T13:23:30.003Z,17.67
2022-10-28T13:28:35.528Z,17.67
2022-10-28T13:33:38.498Z,17.68
2022-10-28T13:38:42.399Z,17.73
2022-10-28T13:43:51.333Z,17.74
2022-10-28T13:48:54.159Z,17.58
2022-10-28T13:53:57.099Z,17.48
2022-10-28T13:59:20.032Z,17.43
2022-10-28T14:04:35.303Z,17.31
2022-10-28T14:09:41.269Z,17.19
2022-10-28T14:14:54.346Z,17.07
2022-10-28T14:19:57.158Z,16.88
2022-10-28T14:25:00.041Z,16.74
2022-10-28T14:30:02.812Z,16.66
2022-10-28T14:35:14.341Z,16.61
2022-10-28T14:40:54.366Z,16.49
2022-10-28T14:46:40.460Z,16.32
2022-10-28T14:51:43.180Z,16.12
2022-10-28T14:56:45.949Z,16.04
2022-10-28T15:02:17.431Z,16.01
2022-10-28T15:07:20.435Z,15.90
2022-10-28T15:12:29.798Z,15.77
2022-10-28T15:17:39.407Z,15.68
2022-10-28T15:22:43.297Z,15.65
2022-10-28T15:27:47.014Z,15.64
2022-10-28T15:32:51.314Z,15.56
2022-10-28T15:37:55.289Z,15.49
2022-10-28T15:43:06.475Z,15.43
2022-10-28T15:48:14.750Z,15.33
2022-10-28T15:53:27.395Z,15.24
2022-10-28T15:58:36.220Z,15.14
2022-10-28T16:03:48.420Z,14.99
2022-10-28T16:09:06.947Z,14.93
2022-10-28T16:14:41.112Z,14.92
2022-10-28T16:19:57.286Z,14.90
2022-10-28T16:25:00.427Z,14.88
2022-10-28T16:30:03.919Z,14.82
2022-10-28T16:35:21.522Z,14.80
2022-10-28T16:40:49.768Z,14.78
2022-10-28T16:45:48.825Z,14.78
2022-10-28T16:51:02.982Z,14.75
2022-10-28T16:56:09.824Z,14.77
2022-10-28T17:01:21.233Z,14.73
2022-10-28T17:06:27.087Z,14.74
2022-10-28T17:16:40.651Z,14.76
2022-10-28T17:21:46.153Z,14.71
2022-10-28T17:26:49.309Z,14.70
2022-10-28T17:31:52.265Z,14.68
2022-10-28T17:36:55.462Z,14.66
2022-10-28T17:41:58.227Z,14.64
2022-10-28T17:47:02.512Z,14.66
2022-10-28T17:52:05.353Z,14.68
2022-10-28T17:57:08.290Z,14.72
2022-10-28T18:02:13.096Z,14.80
2022-10-28T18:07:16.289Z,14.85
2022-10-28T18:12:19.112Z,14.88
2022-10-28T18:17:21.994Z,14.89
2022-10-28T18:27:29.277Z,14.87
2022-10-28T18:32:32.658Z,14.89
2022-10-28T18:37:35.513Z,14.88
2022-10-28T18:42:38.519Z,14.88
2022-10-28T18:47:41.748Z,14.84
2022-10-28T18:52:44.596Z,14.85
2022-10-28T18:57:50.016Z,14.84
2022-10-28T19:08:00.648Z,14.93
2022-10-28T19:13:03.751Z,14.93
2022-10-28T19:18:06.511Z,14.91
2022-10-28T19:23:11.702Z,14.92
2022-10-28T19:28:14.477Z,14.87
2022-10-28T19:33:17.630Z,14.84
2022-10-28T19:38:20.566Z,14.81
2022-10-28T19:43:23.385Z,14.81
2022-10-28T19:48:27.053Z,14.79
2022-10-28T19:53:29.835Z,14.83
2022-10-28T19:58:33.758Z,14.91
2022-10-28T20:03:39.188Z,14.95
2022-10-28T20:08:43.888Z,14.96
2022-10-28T20:13:51.635Z,14.94
2022-10-28T20:18:55.239Z,14.93
2022-10-28T20:23:58.458Z,14.86
2022-10-28T20:29:06.629Z,14.77
2022-10-28T20:34:09.437Z,14.73
2022-10-28T20:39:17.653Z,14.67
2022-10-28T20:44:21.504Z,14.66
2022-10-28T20:49:24.395Z,14.60
2022-10-28T20:54:27.690Z,14.62
2022-10-28T20:59:30.584Z,14.66
2022-10-28T21:04:33.555Z,14.72
2022-10-28T21:09:36.332Z,14.72
2022-10-28T21:14:39.120Z,14.63
2022-10-28T21:19:41.867Z,14.53
2022-10-28T21:24:44.706Z,14.45
2022-10-28T21:29:47.548Z,14.37
2022-10-28T21:34:50.459Z,14.30
2022-10-28T21:39:57.238Z,14.18
2022-10-28T21:45:03.890Z,14.05
2022-10-28T21:50:06.968Z,13.95
2022-10-28T21:55:20.274Z,13.86
2022-10-28T22:00:30.103Z,13.81
2022-10-28T22:05:32.967Z,13.77
2022-10-28T22:10:37.787Z,13.69
2022-10-28T22:15:40.650Z,13.66
2022-10-28T22:20:43.526Z,13.61
2022-10-28T22:25:46.493Z,13.55
2022-10-28T22:30:51.313Z,13.47
2022-10-28T22:35:58.699Z,13.40
2022-10-28T22:41:15.398Z,13.34
2022-10-28T22:46:18.578Z,13.29
2022-10-28T22:51:21.757Z,13.21
2022-10-28T22:56:25.512Z,13.14
2022-10-28T23:01:29.058Z,13.10
2022-10-28T23:06:32.127Z,13.10
2022-10-28T23:11:34.919Z,13.08
2022-10-28T23:16:37.711Z,13.07
2022-10-28T23:21:40.467Z,13.10
2022-10-28T23:26:44.710Z,13.10
2022-10-28T23:31:47.529Z,13.11
2022-10-28T23:36:54.066Z,13.11
2022-10-28T23:41:56.851Z,13.11
2022-10-28T23:46:59.699Z,13.12
2022-10-28T23:52:03.970Z,13.09
2022-10-28T23:57:06.775Z,13.05
